sensor_id;sensor_type;location;lat;lon;timestamp;pressure;altitude;pressure_sealevel;temperature;humidity
64139;BME280;50435;43.700;-79.318;2023-04-27T00:02:14;100868.01;;;9.08;42.05
64139;BME280;50435;43.700;-79.318;2023-04-27T00:04:42;100867.60;;;8.18;42.10
64139;BME280;50435;43.700;-79.318;2023-04-27T00:07:09;100869.10;;;9.13;42.31
64139;BME280;50435;43.700;-79.318;2023-04-27T00:09:36;100873.51;;;9.61;42.28
64139;BME280;50435;43.700;-79.318;2023-04-27T00:12:04;100872.04;;;8.91;42.47
64139;BME280;50435;43.700;-79.318;2023-04-27T00:14:32;100872.94;;;8.99;42.77
64139;BME280;50435;43.700;-79.318;2023-04-27T00:16:59;100873.15;;;8.81;42.78
64139;BME280;50435;43.700;-79.318;2023-04-27T00:19:27;100877.34;;;8.96;43.02
64139;BME280;50435;43.700;-79.318;2023-04-27T00:21:54;100881.83;;;8.43;43.48
64139;BME280;50435;43.700;-79.318;2023-04-27T00:24:21;100886.01;;;8.85;43.72
64139;BME280;50435;43.700;-79.318;2023-04-27T00:26:49;100885.89;;;7.51;44.30
64139;BME280;50435;43.700;-79.318;2023-04-27T00:29:17;100892.26;;;8.75;44.32
64139;BME280;50435;43.700;-79.318;2023-04-27T00:31:45;100891.39;;;7.78;44.32
64139;BME280;50435;43.700;-79.318;2023-04-27T00:34:13;100894.08;;;8.66;44.50
64139;BME280;50435;43.700;-79.318;2023-04-27T00:36:41;100895.98;;;8.57;44.35
64139;BME280;50435;43.700;-79.318;2023-04-27T00:39:08;100902.20;;;8.47;44.35
64139;BME280;50435;43.700;-79.318;2023-04-27T00:41:36;100904.46;;;8.89;44.58
64139;BME280;50435;43.700;-79.318;2023-04-27T00:44:04;100908.33;;;8.42;44.42
64139;BME280;50435;43.700;-79.318;2023-04-27T00:46:32;100908.36;;;8.75;44.57
64139;BME280;50435;43.700;-79.318;2023-04-27T00:49:00;100911.92;;;8.68;44.41
64139;BME280;50435;43.700;-79.318;2023-04-27T00:51:27;100916.00;;;8.56;44.47
64139;BME280;50435;43.700;-79.318;2023-04-27T00:53:56;100915.16;;;8.43;44.17
64139;BME280;50435;43.700;-79.318;2023-04-27T00:56:24;100914.09;;;8.86;44.32
64139;BME280;50435;43.700;-79.318;2023-04-27T00:58:51;100916.48;;;8.03;44.55
64139;BME280;50435;43.700;-79.318;2023-04-27T01:01:18;100920.35;;;8.46;44.78
64139;BME280;50435;43.700;-79.318;2023-04-27T01:03:46;100920.18;;;7.28;44.59
64139;BME280;50435;43.700;-79.318;2023-04-27T01:06:14;100918.88;;;8.45;44.76
64139;BME280;50435;43.700;-79.318;2023-04-27T01:08:41;100921.72;;;8.23;44.88
64139;BME280;50435;43.700;-79.318;2023-04-27T01:11:08;100921.86;;;8.76;44.73
64139;BME280;50435;43.700;-79.318;2023-04-27T01:13:36;100922.58;;;8.91;44.77
64139;BME280;50435;43.700;-79.318;2023-04-27T01:16:04;100923.65;;;8.12;45.09
64139;BME280;50435;43.700;-79.318;2023-04-27T01:18:32;100924.74;;;8.78;44.65
64139;BME280;50435;43.700;-79.318;2023-04-27T01:21:00;100927.49;;;8.44;44.79
64139;BME280;50435;43.700;-79.318;2023-04-27T01:23:27;100930.40;;;8.76;44.98
64139;BME280;50435;43.700;-79.318;2023-04-27T01:25:55;100930.80;;;8.24;44.71
64139;BME280;50435;43.700;-79.318;2023-04-27T01:28:23;100933.33;;;8.58;44.12
64139;BME280;50435;43.700;-79.318;2023-04-27T01:30:50;100937.57;;;7.20;44.55
64139;BME280;50435;43.700;-79.318;2023-04-27T01:33:17;100941.22;;;8.64;44.25
64139;BME280;50435;43.700;-79.318;2023-04-27T01:35:45;100942.52;;;7.20;44.15
64139;BME280;50435;43.700;-79.318;2023-04-27T01:38:12;100943.67;;;8.06;44.28
64139;BME280;50435;43.700;-79.318;2023-04-27T01:40:40;100952.44;;;8.05;44.30
64139;BME280;50435;43.700;-79.318;2023-04-27T01:43:07;100952.44;;;8.35;44.29
64139;BME280;50435;43.700;-79.318;2023-04-27T01:45:34;100955.95;;;8.49;44.25
64139;BME280;50435;43.700;-79.318;2023-04-27T01:48:01;100953.02;;;8.58;44.21
64139;BME280;50435;43.700;-79.318;2023-04-27T01:50:28;100953.21;;;8.46;44.29
64139;BME280;50435;43.700;-79.318;2023-04-27T01:52:56;100953.62;;;8.63;44.41
64139;BME280;50435;43.700;-79.318;2023-04-27T01:55:23;100951.13;;;8.38;45.01
64139;BME280;50435;43.700;-79.318;2023-04-27T01:57:50;100946.63;;;6.99;44.86
64139;BME280;50435;43.700;-79.318;2023-04-27T02:00:18;100944.29;;;8.32;44.58
64139;BME280;50435;43.700;-79.318;2023-04-27T02:02:45;100942.74;;;6.87;44.37
64139;BME280;50435;43.700;-79.318;2023-04-27T02:05:13;100943.06;;;8.31;44.55
64139;BME280;50435;43.700;-79.318;2023-04-27T02:07:40;100941.81;;;7.56;44.57
64139;BME280;50435;43.700;-79.318;2023-04-27T02:10:08;100945.54;;;7.81;44.55
64139;BME280;50435;43.700;-79.318;2023-04-27T02:12:36;100941.88;;;8.28;44.50
64139;BME280;50435;43.700;-79.318;2023-04-27T02:15:05;100941.84;;;7.85;44.30
64139;BME280;50435;43.700;-79.318;2023-04-27T02:17:33;100948.46;;;8.06;45.04
64139;BME280;50435;43.700;-79.318;2023-04-27T02:20:01;100943.76;;;7.85;44.74
64139;BME280;50435;43.700;-79.318;2023-04-27T02:22:29;100944.53;;;8.10;44.82
64139;BME280;50435;43.700;-79.318;2023-04-27T02:24:58;100943.24;;;7.57;44.80
64139;BME280;50435;43.700;-79.318;2023-04-27T02:27:25;100940.31;;;8.09;44.79
64139;BME280;50435;43.700;-79.318;2023-04-27T02:29:52;100942.92;;;6.65;44.73
64139;BME280;50435;43.700;-79.318;2023-04-27T02:32:21;100940.31;;;8.17;44.63
64139;BME280;50435;43.700;-79.318;2023-04-27T02:34:49;100944.35;;;6.63;44.91
64139;BME280;50435;43.700;-79.318;2023-04-27T02:37:16;100943.85;;;7.88;45.21
64139;BME280;50435;43.700;-79.318;2023-04-27T02:39:43;100939.88;;;7.16;44.69
64139;BME280;50435;43.700;-79.318;2023-04-27T02:42:10;100937.02;;;7.70;44.99
64139;BME280;50435;43.700;-79.318;2023-04-27T02:44:37;100936.67;;;8.01;44.96
64139;BME280;50435;43.700;-79.318;2023-04-27T02:47:04;100936.04;;;7.46;44.82
64139;BME280;50435;43.700;-79.318;2023-04-27T02:49:32;100938.66;;;7.92;45.12
64139;BME280;50435;43.700;-79.318;2023-04-27T02:51:59;100934.98;;;7.88;45.18
64139;BME280;50435;43.700;-79.318;2023-04-27T02:54:26;100936.37;;;7.89;44.97
64139;BME280;50435;43.700;-79.318;2023-04-27T02:56:53;100937.72;;;7.34;45.57
64139;BME280;50435;43.700;-79.318;2023-04-27T02:59:21;100939.92;;;8.07;45.07
64139;BME280;50435;43.700;-79.318;2023-04-27T03:01:49;100947.10;;;5.88;45.56
64139;BME280;50435;43.700;-79.318;2023-04-27T03:04:16;100948.54;;;7.76;45.16
64139;BME280;50435;43.700;-79.318;2023-04-27T03:06:44;100945.72;;;6.77;45.32
64139;BME280;50435;43.700;-79.318;2023-04-27T03:09:11;100952.39;;;7.10;45.30
64139;BME280;50435;43.700;-79.318;2023-04-27T03:11:39;100953.46;;;8.13;45.36
64139;BME280;50435;43.700;-79.318;2023-04-27T03:14:07;100953.30;;;7.34;45.80
64139;BME280;50435;43.700;-79.318;2023-04-27T03:16:34;100958.95;;;7.48;45.56
64139;BME280;50435;43.700;-79.318;2023-04-27T03:19:02;100961.63;;;7.46;45.51
64139;BME280;50435;43.700;-79.318;2023-04-27T03:21:29;100961.56;;;7.71;45.46
64139;BME280;50435;43.700;-79.318;2023-04-27T03:23:56;100959.27;;;6.67;46.07
64139;BME280;50435;43.700;-79.318;2023-04-27T03:26:24;100959.60;;;7.52;45.91
64139;BME280;50435;43.700;-79.318;2023-04-27T03:28:51;100959.58;;;6.21;46.01
64139;BME280;50435;43.700;-79.318;2023-04-27T03:31:19;100958.30;;;7.12;46.10
64139;BME280;50435;43.700;-79.318;2023-04-27T03:33:47;100958.49;;;6.25;45.97
64139;BME280;50435;43.700;-79.318;2023-04-27T03:36:14;100959.22;;;7.08;45.98
64139;BME280;50435;43.700;-79.318;2023-04-27T03:38:42;100961.25;;;6.62;46.03
64139;BME280;50435;43.700;-79.318;2023-04-27T03:41:09;100965.84;;;6.94;46.23
64139;BME280;50435;43.700;-79.318;2023-04-27T03:43:36;100966.09;;;7.48;46.12
64139;BME280;50435;43.700;-79.318;2023-04-27T03:46:03;100966.92;;;6.84;46.39
64139;BME280;50435;43.700;-79.318;2023-04-27T03:48:31;100965.42;;;7.38;45.71
64139;BME280;50435;43.700;-79.318;2023-04-27T03:50:59;100967.47;;;6.64;45.56
64139;BME280;50435;43.700;-79.318;2023-04-27T03:53:27;100968.54;;;7.64;45.63
64139;BME280;50435;43.700;-79.318;2023-04-27T03:55:54;100967.94;;;6.95;45.96
64139;BME280;50435;43.700;-79.318;2023-04-27T03:58:21;100966.56;;;7.11;46.07
64139;BME280;50435;43.700;-79.318;2023-04-27T04:00:48;100966.22;;;5.71;46.48
64139;BME280;50435;43.700;-79.318;2023-04-27T04:03:15;100967.04;;;6.97;46.27
64139;BME280;50435;43.700;-79.318;2023-04-27T04:05:42;100967.92;;;6.01;46.23
64139;BME280;50435;43.700;-79.318;2023-04-27T04:08:10;100965.30;;;6.53;46.50
64139;BME280;50435;43.700;-79.318;2023-04-27T04:10:37;100966.06;;;6.96;46.49
64139;BME280;50435;43.700;-79.318;2023-04-27T04:13:04;100966.37;;;6.63;46.55
64139;BME280;50435;43.700;-79.318;2023-04-27T04:15:31;100964.83;;;6.77;46.79
64139;BME280;50435;43.700;-79.318;2023-04-27T04:17:58;100962.72;;;6.10;46.72
64139;BME280;50435;43.700;-79.318;2023-04-27T04:20:25;100960.60;;;6.75;46.69
64139;BME280;50435;43.700;-79.318;2023-04-27T04:22:53;100960.67;;;5.79;46.58
64139;BME280;50435;43.700;-79.318;2023-04-27T04:25:20;100965.73;;;6.56;46.34
64139;BME280;50435;43.700;-79.318;2023-04-27T04:27:48;100962.80;;;5.21;46.60
64139;BME280;50435;43.700;-79.318;2023-04-27T04:30:15;100961.43;;;6.56;46.74
64139;BME280;50435;43.700;-79.318;2023-04-27T04:32:43;100960.68;;;5.80;46.87
64139;BME280;50435;43.700;-79.318;2023-04-27T04:35:11;100967.79;;;6.29;47.21
64139;BME280;50435;43.700;-79.318;2023-04-27T04:37:39;100965.95;;;6.51;47.22
64139;BME280;50435;43.700;-79.318;2023-04-27T04:40:07;100964.77;;;6.20;46.90
64139;BME280;50435;43.700;-79.318;2023-04-27T04:42:35;100962.78;;;6.41;46.88
64139;BME280;50435;43.700;-79.318;2023-04-27T04:45:04;100962.52;;;6.38;46.87
64139;BME280;50435;43.700;-79.318;2023-04-27T04:47:31;100966.78;;;6.21;47.15
64139;BME280;50435;43.700;-79.318;2023-04-27T04:49:58;100958.45;;;5.78;47.00
64139;BME280;50435;43.700;-79.318;2023-04-27T04:52:25;100958.50;;;6.49;46.84
64139;BME280;50435;43.700;-79.318;2023-04-27T04:54:53;100962.65;;;5.30;46.85
64139;BME280;50435;43.700;-79.318;2023-04-27T04:57:21;100963.53;;;6.12;47.04
64139;BME280;50435;43.700;-79.318;2023-04-27T04:59:49;100960.27;;;4.69;47.02
64139;BME280;50435;43.700;-79.318;2023-04-27T05:02:16;100961.87;;;6.17;46.94
64139;BME280;50435;43.700;-79.318;2023-04-27T05:04:43;100955.62;;;5.13;46.97
64139;BME280;50435;43.700;-79.318;2023-04-27T05:07:10;100954.43;;;6.20;46.80
64139;BME280;50435;43.700;-79.318;2023-04-27T05:09:38;100949.40;;;6.07;46.86
64139;BME280;50435;43.700;-79.318;2023-04-27T05:12:06;100948.24;;;5.86;46.66
64139;BME280;50435;43.700;-79.318;2023-04-27T05:14:34;100946.50;;;6.17;46.61
64139;BME280;50435;43.700;-79.318;2023-04-27T05:17:01;100940.81;;;5.76;46.69
64139;BME280;50435;43.700;-79.318;2023-04-27T05:19:29;100943.14;;;6.26;47.19
64139;BME280;50435;43.700;-79.318;2023-04-27T05:21:57;100943.52;;;5.07;47.57
64139;BME280;50435;43.700;-79.318;2023-04-27T05:24:25;100940.39;;;5.69;47.32
64139;BME280;50435;43.700;-79.318;2023-04-27T05:26:52;100940.21;;;4.84;47.01
64139;BME280;50435;43.700;-79.318;2023-04-27T05:29:20;100942.85;;;5.73;47.12
64139;BME280;50435;43.700;-79.318;2023-04-27T05:31:48;100941.51;;;4.15;46.92
64139;BME280;50435;43.700;-79.318;2023-04-27T05:34:16;100942.67;;;5.64;47.18
64139;BME280;50435;43.700;-79.318;2023-04-27T05:36:43;100943.25;;;4.75;47.37
64139;BME280;50435;43.700;-79.318;2023-04-27T05:39:11;100942.77;;;5.57;47.19
64139;BME280;50435;43.700;-79.318;2023-04-27T05:41:38;100941.32;;;6.01;47.27
64139;BME280;50435;43.700;-79.318;2023-04-27T05:44:06;100938.90;;;5.46;47.36
64139;BME280;50435;43.700;-79.318;2023-04-27T05:46:33;100938.10;;;5.92;47.41
64139;BME280;50435;43.700;-79.318;2023-04-27T05:49:00;100932.60;;;4.97;47.28
64139;BME280;50435;43.700;-79.318;2023-04-27T05:51:28;100931.62;;;5.90;47.26
64139;BME280;50435;43.700;-79.318;2023-04-27T05:53:55;100933.41;;;5.26;47.54
64139;BME280;50435;43.700;-79.318;2023-04-27T05:56:22;100928.82;;;5.08;47.87
64139;BME280;50435;43.700;-79.318;2023-04-27T05:58:49;100924.55;;;3.89;47.42
64139;BME280;50435;43.700;-79.318;2023-04-27T06:01:16;100923.29;;;5.27;47.45
64139;BME280;50435;43.700;-79.318;2023-04-27T06:03:43;100923.98;;;4.55;47.27
64139;BME280;50435;43.700;-79.318;2023-04-27T06:06:11;100926.60;;;5.71;47.42
64139;BME280;50435;43.700;-79.318;2023-04-27T06:08:38;100925.98;;;5.53;47.63
64139;BME280;50435;43.700;-79.318;2023-04-27T06:11:05;100922.53;;;5.41;47.84
64139;BME280;50435;43.700;-79.318;2023-04-27T06:13:32;100921.80;;;5.32;48.11
64139;BME280;50435;43.700;-79.318;2023-04-27T06:16:00;100920.07;;;4.59;47.49
64139;BME280;50435;43.700;-79.318;2023-04-27T06:18:28;100919.81;;;5.54;47.46
64139;BME280;50435;43.700;-79.318;2023-04-27T06:20:58;100915.98;;;4.51;47.57
64139;BME280;50435;43.700;-79.318;2023-04-27T06:23:25;100912.48;;;5.47;47.49
64139;BME280;50435;43.700;-79.318;2023-04-27T06:25:53;100909.69;;;3.96;47.52
64139;BME280;50435;43.700;-79.318;2023-04-27T06:28:20;100908.74;;;5.54;47.33
64139;BME280;50435;43.700;-79.318;2023-04-27T06:30:47;100906.68;;;4.36;47.63
64139;BME280;50435;43.700;-79.318;2023-04-27T06:33:14;100908.23;;;5.50;47.78
64139;BME280;50435;43.700;-79.318;2023-04-27T06:35:44;100910.31;;;4.49;47.77
64139;BME280;50435;43.700;-79.318;2023-04-27T06:38:11;100910.51;;;4.80;48.10
64139;BME280;50435;43.700;-79.318;2023-04-27T06:40:38;100911.93;;;5.12;48.00
64139;BME280;50435;43.700;-79.318;2023-04-27T06:43:06;100916.01;;;5.24;47.69
64139;BME280;50435;43.700;-79.318;2023-04-27T06:45:33;100923.75;;;5.17;47.85
64139;BME280;50435;43.700;-79.318;2023-04-27T06:48:00;100921.65;;;4.62;47.90
64139;BME280;50435;43.700;-79.318;2023-04-27T06:50:27;100920.04;;;5.00;48.13
64139;BME280;50435;43.700;-79.318;2023-04-27T06:52:55;100922.15;;;3.84;48.52
64139;BME280;50435;43.700;-79.318;2023-04-27T06:55:22;100926.45;;;4.84;48.35
64139;BME280;50435;43.700;-79.318;2023-04-27T06:57:49;100927.81;;;3.47;48.33
64139;BME280;50435;43.700;-79.318;2023-04-27T07:00:17;100928.84;;;4.75;48.43
64139;BME280;50435;43.700;-79.318;2023-04-27T07:02:44;100926.77;;;3.67;48.18
64139;BME280;50435;43.700;-79.318;2023-04-27T07:05:12;100924.45;;;5.10;47.68
64139;BME280;50435;43.700;-79.318;2023-04-27T07:07:39;100925.25;;;5.06;48.09
64139;BME280;50435;43.700;-79.318;2023-04-27T07:10:07;100925.71;;;4.20;48.48
64139;BME280;50435;43.700;-79.318;2023-04-27T07:12:35;100922.84;;;4.88;48.46
64139;BME280;50435;43.700;-79.318;2023-04-27T07:15:03;100923.41;;;4.35;48.09
64139;BME280;50435;43.700;-79.318;2023-04-27T07:17:30;100922.83;;;4.75;48.18
64139;BME280;50435;43.700;-79.318;2023-04-27T07:19:58;100922.35;;;4.64;48.33
64139;BME280;50435;43.700;-79.318;2023-04-27T07:22:25;100920.98;;;4.53;48.51
64139;BME280;50435;43.700;-79.318;2023-04-27T07:24:52;100920.74;;;2.80;48.20
64139;BME280;50435;43.700;-79.318;2023-04-27T07:27:19;100921.59;;;4.55;48.38
64139;BME280;50435;43.700;-79.318;2023-04-27T07:29:46;100916.79;;;3.13;48.31
64139;BME280;50435;43.700;-79.318;2023-04-27T07:32:14;100914.59;;;4.47;48.55
64139;BME280;50435;43.700;-79.318;2023-04-27T07:34:41;100919.14;;;4.04;48.34
64139;BME280;50435;43.700;-79.318;2023-04-27T07:37:09;100916.92;;;4.11;49.23
64139;BME280;50435;43.700;-79.318;2023-04-27T07:39:36;100917.99;;;4.74;48.88
64139;BME280;50435;43.700;-79.318;2023-04-27T07:42:04;100920.32;;;4.23;48.81
64139;BME280;50435;43.700;-79.318;2023-04-27T07:44:32;100924.59;;;4.46;48.84
64139;BME280;50435;43.700;-79.318;2023-04-27T07:46:59;100927.44;;;3.88;48.55
64139;BME280;50435;43.700;-79.318;2023-04-27T07:49:26;100927.30;;;4.60;48.52
64139;BME280;50435;43.700;-79.318;2023-04-27T07:51:53;100925.35;;;3.18;48.77
64139;BME280;50435;43.700;-79.318;2023-04-27T07:54:21;100926.24;;;4.28;48.89
64139;BME280;50435;43.700;-79.318;2023-04-27T07:56:48;100930.73;;;2.86;48.89
64139;BME280;50435;43.700;-79.318;2023-04-27T07:59:15;100934.56;;;4.33;48.25
64139;BME280;50435;43.700;-79.318;2023-04-27T08:01:42;100938.70;;;3.94;48.01
64139;BME280;50435;43.700;-79.318;2023-04-27T08:04:10;100933.97;;;4.38;48.06
64139;BME280;50435;43.700;-79.318;2023-04-27T08:06:37;100935.81;;;4.41;47.95
64139;BME280;50435;43.700;-79.318;2023-04-27T08:09:04;100935.55;;;4.32;47.92
64139;BME280;50435;43.700;-79.318;2023-04-27T08:11:31;100942.80;;;4.05;48.87
64139;BME280;50435;43.700;-79.318;2023-04-27T08:13:59;100940.11;;;3.85;48.36
64139;BME280;50435;43.700;-79.318;2023-04-27T08:16:27;100945.02;;;4.49;48.29
64139;BME280;50435;43.700;-79.318;2023-04-27T08:18:55;100947.77;;;4.14;48.16
64139;BME280;50435;43.700;-79.318;2023-04-27T08:21:22;100952.19;;;4.30;48.67
64139;BME280;50435;43.700;-79.318;2023-04-27T08:23:49;100959.09;;;2.95;48.46
64139;BME280;50435;43.700;-79.318;2023-04-27T08:26:17;100958.30;;;4.31;48.46
64139;BME280;50435;43.700;-79.318;2023-04-27T08:28:44;100964.39;;;3.05;48.04
64139;BME280;50435;43.700;-79.318;2023-04-27T08:31:11;100969.95;;;4.05;48.43
64139;BME280;50435;43.700;-79.318;2023-04-27T08:33:38;100970.18;;;4.15;48.72
64139;BME280;50435;43.700;-79.318;2023-04-27T08:36:06;100973.72;;;3.72;48.61
64139;BME280;50435;43.700;-79.318;2023-04-27T08:38:34;100975.98;;;4.33;48.26
64139;BME280;50435;43.700;-79.318;2023-04-27T08:41:02;100977.92;;;3.41;48.47
64139;BME280;50435;43.700;-79.318;2023-04-27T08:43:33;100981.14;;;4.23;48.30
64139;BME280;50435;43.700;-79.318;2023-04-27T08:46:00;100979.94;;;3.76;48.27
64139;BME280;50435;43.700;-79.318;2023-04-27T08:48:28;100986.20;;;4.13;48.42
64139;BME280;50435;43.700;-79.318;2023-04-27T08:50:59;100987.74;;;3.21;48.48
64139;BME280;50435;43.700;-79.318;2023-04-27T08:53:26;100994.03;;;4.01;48.54
64139;BME280;50435;43.700;-79.318;2023-04-27T08:55:53;100995.86;;;2.47;48.44
64139;BME280;50435;43.700;-79.318;2023-04-27T08:58:21;100989.39;;;4.06;48.32
64139;BME280;50435;43.700;-79.318;2023-04-27T09:00:48;100987.27;;;2.59;48.41
64139;BME280;50435;43.700;-79.318;2023-04-27T09:03:21;100986.31;;;4.21;48.12
64139;BME280;50435;43.700;-79.318;2023-04-27T09:05:50;100988.05;;;2.88;47.84
64139;BME280;50435;43.700;-79.318;2023-04-27T09:08:17;100993.81;;;4.11;47.95
64139;BME280;50435;43.700;-79.318;2023-04-27T09:10:45;100995.91;;;3.18;47.93
64139;BME280;50435;43.700;-79.318;2023-04-27T09:13:13;100999.17;;;3.59;49.14
64139;BME280;50435;43.700;-79.318;2023-04-27T09:15:41;101000.07;;;3.19;48.84
64139;BME280;50435;43.700;-79.318;2023-04-27T09:18:15;101002.53;;;3.66;48.33
64139;BME280;50435;43.700;-79.318;2023-04-27T09:20:44;100998.92;;;2.94;48.30
64139;BME280;50435;43.700;-79.318;2023-04-27T09:23:24;100998.69;;;3.79;48.50
64139;BME280;50435;43.700;-79.318;2023-04-27T09:25:52;101001.51;;;2.88;48.43
64139;BME280;50435;43.700;-79.318;2023-04-27T09:28:20;101002.03;;;3.56;48.83
64139;BME280;50435;43.700;-79.318;2023-04-27T09:30:53;101000.77;;;2.31;48.96
64139;BME280;50435;43.700;-79.318;2023-04-27T09:33:22;100994.91;;;3.45;49.04
64139;BME280;50435;43.700;-79.318;2023-04-27T09:35:50;101000.09;;;2.39;48.77
64139;BME280;50435;43.700;-79.318;2023-04-27T09:38:19;101006.62;;;3.60;48.82
64139;BME280;50435;43.700;-79.318;2023-04-27T09:40:49;101002.34;;;2.34;48.80
64139;BME280;50435;43.700;-79.318;2023-04-27T09:43:17;101000.65;;;3.50;49.50
64139;BME280;50435;43.700;-79.318;2023-04-27T09:45:44;100997.69;;;2.71;49.70
64139;BME280;50435;43.700;-79.318;2023-04-27T09:48:12;100994.82;;;3.16;49.59
64139;BME280;50435;43.700;-79.318;2023-04-27T09:50:42;100992.86;;;3.32;49.83
64139;BME280;50435;43.700;-79.318;2023-04-27T09:53:11;100992.11;;;3.02;49.87
64139;BME280;50435;43.700;-79.318;2023-04-27T09:55:42;100987.38;;;2.85;50.21
64139;BME280;50435;43.700;-79.318;2023-04-27T09:58:34;100983.40;;;2.91;50.10
64139;BME280;50435;43.700;-79.318;2023-04-27T10:01:12;100983.69;;;3.07;49.75
64139;BME280;50435;43.700;-79.318;2023-04-27T10:03:54;100981.32;;;1.88;50.21
64139;BME280;50435;43.700;-79.318;2023-04-27T10:06:50;100984.59;;;3.24;49.86
64139;BME280;50435;43.700;-79.318;2023-04-27T10:09:20;100991.02;;;2.95;49.83
64139;BME280;50435;43.700;-79.318;2023-04-27T10:11:47;100993.65;;;1.87;49.57
64139;BME280;50435;43.700;-79.318;2023-04-27T10:14:17;100993.27;;;3.11;49.36
64139;BME280;50435;43.700;-79.318;2023-04-27T10:16:45;100988.87;;;2.11;49.63
64139;BME280;50435;43.700;-79.318;2023-04-27T10:19:13;100991.08;;;3.54;49.63
64139;BME280;50435;43.700;-79.318;2023-04-27T10:21:58;100989.55;;;2.55;49.93
64139;BME280;50435;43.700;-79.318;2023-04-27T10:24:41;100994.01;;;2.94;49.68
64139;BME280;50435;43.700;-79.318;2023-04-27T10:27:10;101001.27;;;2.71;50.10
64139;BME280;50435;43.700;-79.318;2023-04-27T10:29:39;101005.66;;;3.34;49.81
64139;BME280;50435;43.700;-79.318;2023-04-27T10:32:08;101008.95;;;2.63;50.32
64139;BME280;50435;43.700;-79.318;2023-04-27T10:34:37;101011.96;;;3.21;50.20
64139;BME280;50435;43.700;-79.318;2023-04-27T10:37:07;101012.74;;;2.71;50.09
64139;BME280;50435;43.700;-79.318;2023-04-27T10:39:36;101011.54;;;2.91;50.38
64139;BME280;50435;43.700;-79.318;2023-04-27T10:42:06;101017.79;;;2.77;49.88
64139;BME280;50435;43.700;-79.318;2023-04-27T10:44:35;101023.15;;;3.22;50.14
64139;BME280;50435;43.700;-79.318;2023-04-27T10:47:13;101022.77;;;2.38;50.72
64139;BME280;50435;43.700;-79.318;2023-04-27T10:49:42;101022.18;;;2.53;50.47
64139;BME280;50435;43.700;-79.318;2023-04-27T10:52:09;101025.42;;;2.88;50.30
64139;BME280;50435;43.700;-79.318;2023-04-27T10:54:37;101024.96;;;3.08;50.28
64139;BME280;50435;43.700;-79.318;2023-04-27T10:57:06;101024.18;;;2.61;50.27
64139;BME280;50435;43.700;-79.318;2023-04-27T10:59:34;101022.39;;;2.99;50.53
64139;BME280;50435;43.700;-79.318;2023-04-27T11:02:13;101027.18;;;2.48;50.60
64139;BME280;50435;43.700;-79.318;2023-04-27T11:04:40;101030.98;;;2.47;50.55
64139;BME280;50435;43.700;-79.318;2023-04-27T11:07:08;101028.88;;;2.50;50.45
64139;BME280;50435;43.700;-79.318;2023-04-27T11:09:36;101036.39;;;2.74;50.52
64139;BME280;50435;43.700;-79.318;2023-04-27T11:12:06;101041.44;;;2.67;50.87
64139;BME280;50435;43.700;-79.318;2023-04-27T11:14:34;101040.77;;;2.87;50.83
64139;BME280;50435;43.700;-79.318;2023-04-27T11:17:02;101045.20;;;2.35;50.84
64139;BME280;50435;43.700;-79.318;2023-04-27T11:19:30;101041.85;;;3.04;50.70
64139;BME280;50435;43.700;-79.318;2023-04-27T11:22:03;101043.06;;;2.35;50.51
64139;BME280;50435;43.700;-79.318;2023-04-27T11:24:30;101051.21;;;2.91;50.78
64139;BME280;50435;43.700;-79.318;2023-04-27T11:26:58;101056.23;;;1.98;50.77
64139;BME280;50435;43.700;-79.318;2023-04-27T11:29:35;101057.26;;;2.78;50.62
64139;BME280;50435;43.700;-79.318;2023-04-27T11:32:04;101061.69;;;2.63;50.40
64139;BME280;50435;43.700;-79.318;2023-04-27T11:34:31;101060.48;;;3.22;50.02
64139;BME280;50435;43.700;-79.318;2023-04-27T11:37:00;101067.55;;;2.66;50.25
64139;BME280;50435;43.700;-79.318;2023-04-27T11:39:31;101067.41;;;3.11;49.78
64139;BME280;50435;43.700;-79.318;2023-04-27T11:42:15;101072.02;;;2.99;49.66
64139;BME280;50435;43.700;-79.318;2023-04-27T11:44:50;101074.65;;;2.63;49.50
64139;BME280;50435;43.700;-79.318;2023-04-27T11:47:18;101071.47;;;3.38;49.31
64139;BME280;50435;43.700;-79.318;2023-04-27T11:49:47;101070.70;;;2.18;49.30
64139;BME280;50435;43.700;-79.318;2023-04-27T11:52:15;101072.79;;;3.62;48.88
64139;BME280;50435;43.700;-79.318;2023-04-27T11:54:51;101072.10;;;2.94;48.91
64139;BME280;50435;43.700;-79.318;2023-04-27T11:57:24;101072.33;;;3.52;48.39
64139;BME280;50435;43.700;-79.318;2023-04-27T11:59:52;101072.51;;;2.41;48.29
64139;BME280;50435;43.700;-79.318;2023-04-27T12:02:20;101071.43;;;3.71;48.04
64139;BME280;50435;43.700;-79.318;2023-04-27T12:04:47;101067.49;;;2.47;48.09
64139;BME280;50435;43.700;-79.318;2023-04-27T12:07:16;101065.76;;;3.84;47.86
64139;BME280;50435;43.700;-79.318;2023-04-27T12:09:43;101061.14;;;3.17;47.98
64139;BME280;50435;43.700;-79.318;2023-04-27T12:12:12;101059.61;;;4.19;48.03
64139;BME280;50435;43.700;-79.318;2023-04-27T12:14:39;101060.70;;;3.89;48.53
64139;BME280;50435;43.700;-79.318;2023-04-27T12:17:06;101056.76;;;3.74;48.81
64139;BME280;50435;43.700;-79.318;2023-04-27T12:19:33;101054.95;;;4.18;48.59
64139;BME280;50435;43.700;-79.318;2023-04-27T12:22:01;101059.02;;;3.31;48.46
64139;BME280;50435;43.700;-79.318;2023-04-27T12:24:29;101058.99;;;4.04;47.62
64139;BME280;50435;43.700;-79.318;2023-04-27T12:26:56;101059.94;;;3.67;47.59
64139;BME280;50435;43.700;-79.318;2023-04-27T12:29:23;101059.65;;;4.27;47.88
64139;BME280;50435;43.700;-79.318;2023-04-27T12:31:51;101054.94;;;2.15;47.90
64139;BME280;50435;43.700;-79.318;2023-04-27T12:34:19;101045.85;;;4.34;47.36
64139;BME280;50435;43.700;-79.318;2023-04-27T12:36:47;101040.37;;;3.12;46.80
64139;BME280;50435;43.700;-79.318;2023-04-27T12:39:15;101033.98;;;4.81;46.40
64139;BME280;50435;43.700;-79.318;2023-04-27T12:41:44;101025.92;;;3.89;45.96
64139;BME280;50435;43.700;-79.318;2023-04-27T12:44:13;101015.57;;;4.76;45.59
64139;BME280;50435;43.700;-79.318;2023-04-27T12:46:41;101015.28;;;5.02;45.75